Time;durP1;ratioP1;P1;durP2;ratioP2;P2;SDS_P1;SDS_P2;PMS_P1;PMS_P2;Temp;Humidity;BMP_temperature;BMP_pressure;BME280_temperature;BME280_humidity;BME280_pressure;Samples;Min_cycle;Max_cycle;Signal;HPM_P1;HPM_P2
2022/01/19 00:06:59;;;;;;;4.30;3.00;;;7.70;87.60;;;;;;20920163;28;20230;-62
2022/01/19 00:17:00;;;;;;;4.67;2.53;;;7.70;87.60;;;;;;20904073;28;20736;-64
2022/01/19 00:27:03;;;;;;;3.30;2.73;;;7.70;87.20;;;;;;20917991;28;20271;-63
2022/01/19 00:37:04;;;;;;;4.53;2.77;;;7.60;86.20;;;;;;20918931;28;20257;-73
2022/01/19 00:47:06;;;;;;;3.40;3.10;;;7.60;86.40;;;;;;20918190;28;20709;-61
2022/01/19 00:57:09;;;;;;;4.53;3.50;;;7.70;86.20;;;;;;20915989;28;20234;-62
2022/01/19 01:07:10;;;;;;;3.83;3.23;;;7.60;85.90;;;;;;20915116;28;20305;-61
2022/01/19 01:27:35;;;;;;;5.53;4.30;;;7.60;86.00;;;;;;20903417;28;20286;-67
2022/01/19 01:37:36;;;;;;;5.50;4.20;;;7.50;85.90;;;;;;20914129;28;20210;-66
2022/01/19 01:47:44;;;;;;;7.77;5.10;;;;;;;;;;20913501;28;20295;-63
2022/01/19 01:57:47;;;;;;;7.60;4.80;;;7.50;86.20;;;;;;20911978;28;20233;-61
2022/01/19 02:49:18;;;;;;;6.83;5.40;;;7.50;86.50;;;;;;20834401;28;20613;-62
2022/01/19 03:09:41;;;;;;;9.00;5.53;;;7.30;86.30;;;;;;20828050;28;20598;-62
2022/01/19 03:19:45;;;;;;;8.27;5.00;;;7.30;86.20;;;;;;20827408;28;20305;-63
2022/01/19 03:29:47;;;;;;;7.97;5.50;;;7.20;86.20;;;;;;20841899;28;20616;-62
2022/01/19 03:39:48;;;;;;;7.13;5.57;;;7.20;86.10;;;;;;20841038;28;20246;-64
2022/01/19 03:49:50;;;;;;;8.13;5.97;;;7.00;86.10;;;;;;20841558;28;20210;-61
2022/01/19 03:59:52;;;;;;;8.50;6.70;;;7.00;86.80;;;;;;20839552;28;20294;-63
2022/01/19 04:09:53;;;;;;;9.27;6.33;;;6.80;86.10;;;;;;20838469;28;20257;-63
2022/01/19 04:19:56;;;;;;;12.17;7.30;;;6.40;86.50;;;;;;20836637;28;20637;-62
2022/01/19 04:30:09;;;;;;;8.00;6.17;;;6.40;87.90;;;;;;20834883;28;20205;-62
2022/01/19 05:21:32;;;;;;;16.03;7.97;;;5.50;88.40;;;;;;20832678;28;20233;-66
2022/01/19 05:31:33;;;;;;;10.60;7.77;;;5.50;88.30;;;;;;20832314;28;20209;-64
2022/01/19 05:41:35;;;;;;;11.63;7.60;;;5.20;88.60;;;;;;20831255;28;20240;-62
2022/01/19 05:51:37;;;;;;;15.33;8.80;;;5.20;89.10;;;;;;20829879;28;20212;-63
2022/01/19 06:01:40;;;;;;;15.23;9.10;;;5.00;89.40;;;;;;20828937;28;20283;-63
2022/01/19 06:11:42;;;;;;;13.17;8.27;;;4.90;89.50;;;;;;20829379;28;20228;-62
2022/01/19 06:21:44;;;;;;;12.37;8.13;;;4.80;89.80;;;;;;20827181;28;20240;-61
2022/01/19 06:31:46;;;;;;;11.87;8.13;;;4.70;90.10;;;;;;20827051;28;20551;-63
2022/01/19 06:41:48;;;;;;;14.87;8.63;;;4.70;90.30;;;;;;20827148;28;20232;-62
2022/01/19 06:56:49;;;;;;;17.30;8.63;;;;;;;;;;21069529;28;20325;-63
2022/01/19 07:06:51;;;;;;;13.17;8.87;;;4.50;90.70;;;;;;21071210;28;20544;-63
2022/01/19 07:16:53;;;;;;;12.20;8.00;;;4.30;90.60;;;;;;21064838;28;20211;-61
2022/01/19 07:26:54;;;;;;;14.30;8.33;;;4.30;90.80;;;;;;21064983;28;20989;-62
2022/01/19 07:36:56;;;;;;;14.77;9.33;;;4.30;90.80;;;;;;21064166;28;20666;-65
2022/01/19 07:46:58;;;;;;;17.27;9.57;;;4.30;90.90;;;;;;21065132;28;20210;-62
2022/01/19 07:57:00;;;;;;;17.57;9.60;;;4.30;91.00;;;;;;21148410;28;20211;-61
2022/01/19 08:07:02;;;;;;;15.37;9.73;;;4.40;91.10;;;;;;21096183;28;20564;-62
2022/01/19 08:17:04;;;;;;;23.83;11.27;;;4.50;91.30;;;;;;21085825;28;20302;-61
2022/01/19 08:27:06;;;;;;;17.87;10.70;;;4.50;91.20;;;;;;21081835;28;20244;-63
2022/01/19 08:37:14;;;;;;;19.47;10.47;;;4.70;91.40;;;;;;21086690;28;20571;-61
2022/01/19 08:47:16;;;;;;;16.50;8.90;;;5.00;91.50;;;;;;21085469;28;20234;-64
2022/01/19 08:57:26;;;;;;;12.50;8.30;;;5.00;91.50;;;;;;21068783;28;20204;-63
2022/01/19 09:07:28;;;;;;;19.63;8.30;;;5.30;91.50;;;;;;21085942;28;20265;-63
2022/01/19 09:17:31;;;;;;;14.67;8.50;;;5.60;91.20;;;;;;21106595;28;20207;-63
2022/01/19 09:27:33;;;;;;;12.50;7.40;;;5.70;91.50;;;;;;21098054;28;20241;-63
2022/01/19 09:37:37;;;;;;;12.47;6.67;;;6.00;90.50;;;;;;21082717;28;20212;-63
2022/01/19 09:47:59;;;;;;;13.97;7.00;;;6.00;88.70;;;;;;21080886;28;20227;-66
2022/01/19 09:58:01;;;;;;;13.03;6.73;;;6.10;89.20;;;;;;21080993;28;20615;-64
2022/01/19 10:08:02;;;;;;;11.87;6.40;;;6.30;87.70;;;;;;21079108;28;20239;-64
2022/01/19 10:18:25;;;;;;;14.83;6.97;;;6.30;86.20;;;;;;21074829;28;20209;-63
2022/01/19 10:28:28;;;;;;;11.17;6.30;;;6.40;87.20;;;;;;20992792;28;20229;-62
2022/01/19 10:38:30;;;;;;;19.20;7.33;;;6.50;86.00;;;;;;20994691;28;20250;-62
2022/01/19 10:48:38;;;;;;;13.70;6.60;;;6.70;85.00;;;;;;20993644;28;20240;-66
2022/01/19 10:58:58;;;;;;;14.43;7.27;;;6.70;85.20;;;;;;20993855;28;20258;-62
2022/01/19 11:08:59;;;;;;;12.70;7.80;;;6.90;84.70;;;;;;20993933;28;20240;-62
2022/01/19 11:19:01;;;;;;;15.77;8.20;;;6.90;85.30;;;;;;21004312;28;20678;-63
2022/01/19 11:29:21;;;;;;;12.83;7.53;;;7.00;83.90;;;;;;20992753;28;20731;-65
2022/01/19 11:39:23;;;;;;;14.70;8.00;;;6.90;83.60;;;;;;21000630;28;20205;-63
2022/01/19 11:49:51;;;;;;;11.13;7.70;;;6.80;84.30;;;;;;21006507;28;20264;-64
2022/01/19 11:59:53;;;;;;;13.87;8.10;;;7.10;84.20;;;;;;21005974;28;20213;-61
2022/01/19 12:09:56;;;;;;;14.83;7.60;;;7.10;84.00;;;;;;21004637;28;20236;-61
2022/01/19 12:20:01;;;;;;;16.70;8.60;;;7.00;84.00;;;;;;21003275;28;20545;-64
2022/01/19 12:30:09;;;;;;;20.23;8.53;;;7.00;84.70;;;;;;21001592;28;20269;-64
2022/01/19 12:40:21;;;;;;;17.30;8.20;;;7.00;84.70;;;;;;21002570;28;20214;-64
2022/01/19 12:50:29;;;;;;;14.67;8.27;;;7.10;85.60;;;;;;21001502;28;20241;-72
2022/01/19 13:00:31;;;;;;;13.47;8.80;;;7.10;85.20;;;;;;21001723;28;20275;-64
2022/01/19 13:20:53;;;;;;;13.73;8.50;;;7.10;85.60;;;;;;20999748;28;20205;-64
2022/01/19 13:30:57;;;;;;;11.73;7.37;;;7.20;86.00;;;;;;20999941;28;20291;-62
2022/01/19 13:41:07;;;;;;;14.87;8.07;;;7.10;84.90;;;;;;20998085;28;20715;-64
2022/01/19 13:51:12;;;;;;;15.37;7.70;;;7.10;84.90;;;;;;20996216;28;20706;-63
2022/01/19 14:01:20;;;;;;;13.90;8.30;;;7.10;85.50;;;;;;20995100;28;20255;-65
2022/01/19 14:11:26;;;;;;;11.80;7.47;;;7.00;86.30;;;;;;20995913;28;20399;-65
2022/01/19 14:21:27;;;;;;;10.37;6.63;;;6.90;85.50;;;;;;20994427;28;20334;-65
2022/01/19 14:31:29;;;;;;;11.17;7.10;;;7.00;86.10;;;;;;20992169;28;20277;-64
2022/01/19 14:41:36;;;;;;;12.68;8.63;;;6.70;85.60;;;;;;20991762;28;20434;-70
2022/01/19 14:51:44;;;;;;;21.07;8.10;;;7.20;86.70;;;;;;20996408;28;20635;-71
2022/01/19 15:01:56;;;;;;;10.30;7.17;;;6.40;88.10;;;;;;20994446;28;20200;-64
2022/01/19 15:11:58;;;;;;;11.60;7.57;;;6.40;88.10;;;;;;20998694;28;20242;-64
2022/01/19 15:22:00;;;;;;;37.57;22.43;;;6.40;87.70;;;;;;21009149;28;20209;-65
2022/01/19 15:32:01;;;;;;;10.60;6.50;;;6.50;87.00;;;;;;21009553;28;20240;-67
2022/01/19 15:42:03;;;;;;;9.10;6.57;;;6.50;87.30;;;;;;21007330;28;20660;-70
2022/01/19 15:52:05;;;;;;;10.20;6.93;;;6.50;86.70;;;;;;20989200;28;20290;-66
2022/01/19 16:02:07;;;;;;;9.80;6.80;;;6.40;86.90;;;;;;20988802;28;20276;-68
2022/01/19 16:12:09;;;;;;;9.33;6.67;;;6.50;87.60;;;;;;21005685;28;20243;-70
2022/01/19 16:26:06;;;;;;;13.03;6.47;;;6.50;87.10;;;;;;21020407;28;20210;-66
2022/01/19 16:32:37;;;;;;;11.37;7.03;;;6.40;87.50;;;;;;21041540;28;20726;-63
2022/01/19 16:42:38;;;;;;;10.50;6.93;;;6.30;88.20;;;;;;20994903;28;20211;-66
2022/01/19 16:52:40;;;;;;;11.60;7.60;;;6.30;89.00;;;;;;21085614;28;20597;-66
2022/01/19 17:02:42;;;;;;;13.93;7.50;;;6.10;90.20;;;;;;21085731;28;20202;-65
2022/01/19 17:12:43;;;;;;;14.10;9.93;;;6.10;90.50;;;;;;21083247;28;20491;-72
2022/01/19 17:22:45;;;;;;;12.70;8.57;;;6.40;91.00;;;;;;21044187;28;20714;-64
2022/01/19 17:32:47;;;;;;;12.57;8.20;;;6.10;90.80;;;;;;20997886;28;20236;-66
2022/01/19 17:42:51;;;;;;;12.87;8.13;;;6.20;91.10;;;;;;20999294;28;20208;-68
2022/01/19 17:55:31;;;;;;;12.23;8.33;;;6.20;90.80;;;;;;21104008;27;20574;-66
2022/01/19 18:05:34;;;;;;;13.73;8.30;;;6.30;91.30;;;;;;21056766;28;20254;-65
2022/01/19 18:15:35;;;;;;;14.03;8.47;;;6.20;91.20;;;;;;20984216;28;20207;-69
2022/01/19 18:25:37;;;;;;;13.40;8.27;;;6.20;91.00;;;;;;21026792;28;20199;-67
2022/01/19 18:35:39;;;;;;;12.87;7.43;;;6.20;91.00;;;;;;21047879;28;20212;-70
2022/01/19 18:45:41;;;;;;;12.13;7.90;;;6.30;90.90;;;;;;21010321;28;20722;-67
2022/01/19 18:55:44;;;;;;;12.80;8.07;;;6.30;90.80;;;;;;20977639;28;20211;-70
2022/01/19 19:05:46;;;;;;;11.97;7.50;;;6.10;91.30;;;;;;20958951;28;20677;-68
2022/01/19 19:15:48;;;;;;;12.33;7.97;;;6.10;91.40;;;;;;20920661;28;20266;-68
2022/01/19 19:25:50;;;;;;;9.43;6.33;;;6.10;91.60;;;;;;20922619;28;20208;-70
2022/01/19 19:35:51;;;;;;;8.53;5.90;;;6.10;91.20;;;;;;20921573;28;20258;-68
2022/01/19 19:45:53;;;;;;;9.10;6.00;;;6.10;90.20;;;;;;20920560;28;20290;-66
2022/01/19 19:55:55;;;;;;;9.03;5.93;;;6.10;90.20;;;;;;20892699;28;20553;-71
2022/01/19 20:05:57;;;;;;;9.73;6.50;;;6.00;90.10;;;;;;20928421;28;20218;-65
2022/01/19 20:15:59;;;;;;;9.07;6.07;;;5.90;90.30;;;;;;20917239;28;20261;-65
2022/01/19 20:26:01;;;;;;;8.90;6.43;;;5.90;90.50;;;;;;20917860;28;20263;-63
2022/01/19 20:36:06;;;;;;;8.40;6.00;;;5.90;90.40;;;;;;20921535;28;20208;-65
2022/01/19 20:46:08;;;;;;;9.70;6.00;;;6.00;90.40;;;;;;20873476;28;20766;-64
2022/01/19 20:56:10;;;;;;;8.13;5.33;;;6.00;90.80;;;;;;20833254;28;20202;-64
2022/01/19 21:06:13;;;;;;;7.77;6.70;;;6.00;90.90;;;;;;20826547;28;20468;-66
2022/01/19 21:16:15;;;;;;;8.17;6.00;;;6.50;91.30;;;;;;20839035;28;20212;-64
2022/01/19 21:26:18;;;;;;;9.00;6.03;;;6.20;91.50;;;;;;20831763;28;20323;-64
2022/01/19 21:36:20;;;;;;;8.37;6.13;;;5.90;91.80;;;;;;20830422;28;20213;-68
2022/01/19 21:46:21;;;;;;;8.07;6.03;;;6.00;92.00;;;;;;20875438;28;20285;-66
2022/01/19 21:56:23;;;;;;;7.83;5.40;;;6.00;92.20;;;;;;20912442;28;20212;-65
2022/01/19 22:06:25;;;;;;;7.30;5.37;;;6.00;92.50;;;;;;20912194;28;20295;-68
2022/01/19 22:16:27;;;;;;;7.63;5.13;;;6.00;92.80;;;;;;20944727;28;20242;-65
2022/01/19 22:26:29;;;;;;;6.60;5.00;;;6.00;93.10;;;;;;20990779;28;20233;-68
2022/01/19 22:36:31;;;;;;;7.17;5.10;;;5.90;93.30;;;;;;20999642;28;20203;-65
2022/01/19 22:46:33;;;;;;;6.90;4.93;;;5.70;94.00;;;;;;21007911;28;20231;-74
2022/01/19 22:56:35;;;;;;;7.13;4.60;;;5.70;94.30;;;;;;21008221;28;20211;-67
2022/01/19 23:06:38;;;;;;;8.10;4.93;;;5.70;94.80;;;;;;21006720;28;20241;-68
2022/01/19 23:16:48;;;;;;;5.57;4.23;;;5.60;95.00;;;;;;20974089;28;20205;-78
2022/01/19 23:26:56;;;;;;;5.93;4.20;;;5.50;95.40;;;;;;20929014;28;20237;-67
2022/01/19 23:57:24;;;;;;;3.37;2.83;;;5.50;95.70;;;;;;20920844;28;20615;-77
